WetterOnline ( https://www.wetteronline.de )

Wetter aktuell Köln

Aktuelles Wetter: Köln/Bonn Flughafen (100m)

6-stündlich | Neueste Meldungen
Ortszeit Temperatur Wetter
So, 03.07. 2:00 15.5° C leicht bewölkt
Sa, 02.07. 20:00 26.0° C wolkenlos
Sa, 02.07. 14:00 23.3° C leicht bewölkt
Sa, 02.07. 8:00 14.6° C wolkenlos
Sa, 02.07. 2:00 10.9° C wolkenlos
Fr, 01.07. 20:00 20.7° C wolkig
Fr, 01.07. 14:00 19.1° C bewölkt
Fr, 01.07. 8:00 14.2° C bewölkt
Ortszeit Temperatur Wetter
So, 03.07. 4:00 12.9° C fast wolkenlos
So, 03.07. 3:50 12.9° C fast wolkenlos
So, 03.07. 3:40 13.4° C fast wolkenlos
So, 03.07. 3:30 14.1° C wolkenlos
So, 03.07. 3:20 14.1° C wolkenlos
So, 03.07. 3:00 14.5° C wolkenlos
So, 03.07. 2:30 15.4° C wolkenlos
So, 03.07. 2:00 15.5° C leicht bewölkt
So, 03.07. 1:30 16.3° C bewölkt
So, 03.07. 1:00 15.3° C bewölkt
So, 03.07. 0:30 16.5° C wolkenlos
So, 03.07. 0:00 16.1° C wolkenlos
Ortszeit Relative Feuchte Sichtweite
So, 03.07. 2:00 76% 60 km
Sa, 02.07. 20:00 35% 65 km
Sa, 02.07. 14:00 40% 45 km
Sa, 02.07. 8:00 76% 55 km
Sa, 02.07. 2:00 92% 45 km
Fr, 01.07. 20:00 43% 60 km
Fr, 01.07. 14:00 56% 55 km
Fr, 01.07. 8:00 81% 60 km
Ortszeit Relative Feuchte Sichtweite
So, 03.07. 4:00 90% 50 km
So, 03.07. 3:50 90% -
So, 03.07. 3:40 87% -
So, 03.07. 3:30 84% 8 km
So, 03.07. 3:20 84% -
So, 03.07. 3:00 81% 50 km
So, 03.07. 2:30 76% 60 km
So, 03.07. 2:00 76% 60 km
So, 03.07. 1:30 72% 60 km
So, 03.07. 1:00 79% 50 km
So, 03.07. 0:30 72% 60 km
So, 03.07. 0:00 72% >70 km
Ortszeit Niederschlagsmenge Niederschlagsart
So, 03.07. 2:00 0.0 l/m2 in 6 Std. -
Sa, 02.07. 20:00 0.0 l/m2 in 12 Std. -
Sa, 02.07. 14:00 0.0 l/m2 in 6 Std. -
Sa, 02.07. 8:00 0.0 l/m2 in 12 Std. -
Sa, 02.07. 2:00 0.0 l/m2 in 6 Std. -
Fr, 01.07. 20:00 0.1 l/m2 in 12 Std. Regen
Fr, 01.07. 14:00 0.0 l/m2 in 6 Std. -
Fr, 01.07. 8:00 2 l/m2 in 12 Std. Sprühregen
Ortszeit Niederschlagsmenge Niederschlagsart
So, 03.07. 4:00 0.0 l/m2 in 1 Std. -
So, 03.07. 3:50 keine Meldung -
So, 03.07. 3:40 keine Meldung -
So, 03.07. 3:30 0.0 l/m2 in 1 Std. -
So, 03.07. 3:20 keine Meldung -
So, 03.07. 3:00 0.0 l/m2 in 1 Std. -
So, 03.07. 2:30 0.0 l/m2 in 1 Std. -
So, 03.07. 2:00 0.0 l/m2 in 1 Std. -
So, 03.07. 1:30 0.0 l/m2 in 1 Std. -
So, 03.07. 1:00 0.0 l/m2 in 1 Std. -
So, 03.07. 0:30 0.0 l/m2 in 1 Std. -
So, 03.07. 0:00 0.0 l/m2 in 1 Std. -
Ortszeit Stärke Spitze Richtung
km/h Bft. km/h Grad Sektor
So, 03.07. 2:00 4 1 22 190° S
Sa, 02.07. 20:00 13 3 37 130° SO
Sa, 02.07. 14:00 11 2 32 140° SO
Sa, 02.07. 8:00 7 2 11 110° O
Sa, 02.07. 2:00 7 2 29 120° SO
Fr, 01.07. 20:00 14 3 29 270° W
Fr, 01.07. 14:00 11 2 22 270° W
Fr, 01.07. 8:00 14 3 22 230° SW
Ortszeit Stärke Spitze Richtung
km/h Bft. km/h Grad Sektor
So, 03.07. 4:00 7 2 11 110° O
So, 03.07. 3:50 7 2 - 110° O
So, 03.07. 3:40 4 1 - 100° O
So, 03.07. 3:30 7 2 11 90° O
So, 03.07. 3:20 7 2 - 90° O
So, 03.07. 3:00 4 1 11 170° S
So, 03.07. 2:30 7 2 11 170° S
So, 03.07. 2:00 4 1 7 190° S
So, 03.07. 1:30 4 1 7 200° S
So, 03.07. 1:00 2 1 13 190° S
So, 03.07. 0:30 7 2 11 330° NW
So, 03.07. 0:00 7 2 14 20° N
Ortszeit Untergrenze Bedeckung Gattung
total tief tief mittel hoch
So, 03.07. 2:00 2400 m 2/8 2/8 - - -
Sa, 02.07. 20:00 - 0/8 0/8 - - -
Sa, 02.07. 14:00 1800 m 5/8 2/8 - - -
Sa, 02.07. 8:00 - 0/8 0/8 - - -
Sa, 02.07. 2:00 - 0/8 0/8 - - -
Fr, 01.07. 20:00 1800 m 6/8 6/8 - - -
Fr, 01.07. 14:00 1200 m 7/8 7/8 - - -
Fr, 01.07. 8:00 810 m 8/8 7/8 - - -
Ortszeit Bedeckungsgrad in Achtel und Wolkenuntergrenze
So, 03.07. 4:00 1(2400m)
So, 03.07. 3:50 1(2400m)
So, 03.07. 3:40 1
So, 03.07. 3:30 keine Wolken
So, 03.07. 3:20 keine Wolken
So, 03.07. 3:00 keine Wolken
So, 03.07. 2:30 keine Wolken
So, 03.07. 2:00 2(2400m)
So, 03.07. 1:30 7(2400m)
So, 03.07. 1:00 7(2400m)
So, 03.07. 0:30 keine Wolken
So, 03.07. 0:00 keine Wolken
Ortszeit Luftdruck NN (hPa) Tendenz (hPa in 3 Std.)
So, 03.07. 2:00 1018 + 0,3
Sa, 02.07. 20:00 1018 - 1,5
Sa, 02.07. 14:00 1021 - 1,7
Sa, 02.07. 8:00 1024 + 0,5
Sa, 02.07. 2:00 1023 + 0,8
Fr, 01.07. 20:00 1020 + 0,6
Fr, 01.07. 14:00 1019 + 0,2
Fr, 01.07. 8:00 1018 + 0,1
Ortszeit Luftdruck NN (hPa) Tendenz (hPa in 3 Std.)
So, 03.07. 4:00 1018 - 0,2
So, 03.07. 3:50 1018 keine Meldung
So, 03.07. 3:40 1018 keine Meldung
So, 03.07. 3:30 1018 0,0
So, 03.07. 3:20 1018 keine Meldung
So, 03.07. 3:00 1018 + 0,2
So, 03.07. 2:30 1018 + 0,1
So, 03.07. 2:00 1018 + 0,3
So, 03.07. 1:30 1018 + 0,5
So, 03.07. 1:00 1018 + 0,4
So, 03.07. 0:30 1018 + 0,2
So, 03.07. 0:00 1018 + 0,1
Ortszeit Schneehöhe (cm)
So, 03.07. 2:00 -
Sa, 02.07. 20:00 -
Sa, 02.07. 14:00 -
Sa, 02.07. 8:00 -
Sa, 02.07. 2:00 -
Fr, 01.07. 20:00 -
Fr, 01.07. 14:00 -
Fr, 01.07. 8:00 -
Ortszeit Schneehöhe (cm)
So, 03.07. 4:00 -
So, 03.07. 3:50 -
So, 03.07. 3:40 -
So, 03.07. 3:30 -
So, 03.07. 3:20 -
So, 03.07. 3:00 -
So, 03.07. 2:30 -
So, 03.07. 2:00 -
So, 03.07. 1:30 -
So, 03.07. 1:00 -
So, 03.07. 0:30 -
So, 03.07. 0:00 -
Link zu dieser Seite / Seite empfehlen

Das Wetter in ...